sensor_id;sensor_type;location;lat;lon;timestamp;P1;durP1;ratioP1;P2;durP2;ratioP2
72037;SDS011;59900;50.788;12.904;2022-09-27T00:01:03;3.58;;;1.50;;
72037;SDS011;59900;50.788;12.904;2022-09-27T00:03:30;5.53;;;1.77;;
72037;SDS011;59900;50.788;12.904;2022-09-27T00:06:04;3.45;;;1.75;;
72037;SDS011;59900;50.788;12.904;2022-09-27T00:08:30;4.65;;;1.77;;
72037;SDS011;59900;50.788;12.904;2022-09-27T00:10:59;3.37;;;1.67;;
72037;SDS011;59900;50.788;12.904;2022-09-27T00:13:26;3.10;;;1.77;;
72037;SDS011;59900;50.788;12.904;2022-09-27T00:15:58;4.57;;;1.50;;
72037;SDS011;59900;50.788;12.904;2022-09-27T00:18:25;3.47;;;1.70;;
72037;SDS011;59900;50.788;12.904;2022-09-27T00:20:50;4.97;;;1.77;;
72037;SDS011;59900;50.788;12.904;2022-09-27T00:23:16;4.10;;;1.80;;
72037;SDS011;59900;50.788;12.904;2022-09-27T00:25:41;3.13;;;1.27;;
72037;SDS011;59900;50.788;12.904;2022-09-27T00:28:07;3.50;;;1.60;;
72037;SDS011;59900;50.788;12.904;2022-09-27T00:30:33;4.57;;;1.85;;
72037;SDS011;59900;50.788;12.904;2022-09-27T00:32:58;4.17;;;1.77;;
72037;SDS011;59900;50.788;12.904;2022-09-27T00:35:23;3.30;;;1.50;;
72037;SDS011;59900;50.788;12.904;2022-09-27T00:37:48;3.30;;;1.30;;
72037;SDS011;59900;50.788;12.904;2022-09-27T00:40:14;3.93;;;1.70;;
72037;SDS011;59900;50.788;12.904;2022-09-27T00:42:40;7.00;;;1.85;;
72037;SDS011;59900;50.788;12.904;2022-09-27T00:45:12;3.20;;;1.93;;
72037;SDS011;59900;50.788;12.904;2022-09-27T00:47:49;5.50;;;2.00;;
72037;SDS011;59900;50.788;12.904;2022-09-27T00:50:28;3.50;;;1.67;;
72037;SDS011;59900;50.788;12.904;2022-09-27T00:53:09;3.88;;;1.90;;
72037;SDS011;59900;50.788;12.904;2022-09-27T00:55:39;3.65;;;1.60;;
72037;SDS011;59900;50.788;12.904;2022-09-27T00:58:09;3.72;;;1.50;;
72037;SDS011;59900;50.788;12.904;2022-09-27T01:00:38;3.73;;;1.87;;
72037;SDS011;59900;50.788;12.904;2022-09-27T01:03:11;3.33;;;1.60;;
72037;SDS011;59900;50.788;12.904;2022-09-27T01:05:39;3.28;;;1.65;;
72037;SDS011;59900;50.788;12.904;2022-09-27T01:08:06;3.75;;;1.50;;
72037;SDS011;59900;50.788;12.904;2022-09-27T01:10:33;4.80;;;1.90;;
72037;SDS011;59900;50.788;12.904;2022-09-27T01:13:15;5.90;;;2.25;;
72037;SDS011;59900;50.788;12.904;2022-09-27T01:15:50;4.32;;;1.50;;
72037;SDS011;59900;50.788;12.904;2022-09-27T01:22:06;4.22;;;1.70;;
72037;SDS011;59900;50.788;12.904;2022-09-27T01:27:32;4.00;;;2.10;;
72037;SDS011;59900;50.788;12.904;2022-09-27T01:30:27;5.68;;;2.03;;
72037;SDS011;59900;50.788;12.904;2022-09-27T01:35:41;3.65;;;2.00;;
72037;SDS011;59900;50.788;12.904;2022-09-27T01:38:24;6.00;;;2.03;;
72037;SDS011;59900;50.788;12.904;2022-09-27T01:41:03;4.50;;;1.80;;
72037;SDS011;59900;50.788;12.904;2022-09-27T01:43:38;3.50;;;1.98;;
72037;SDS011;59900;50.788;12.904;2022-09-27T01:46:10;3.67;;;1.73;;
72037;SDS011;59900;50.788;12.904;2022-09-27T01:48:43;5.78;;;2.05;;
72037;SDS011;59900;50.788;12.904;2022-09-27T01:51:15;4.35;;;2.17;;
72037;SDS011;59900;50.788;12.904;2022-09-27T01:53:49;3.85;;;1.88;;
72037;SDS011;59900;50.788;12.904;2022-09-27T01:56:26;5.07;;;2.20;;
72037;SDS011;59900;50.788;12.904;2022-09-27T02:01:28;4.38;;;1.90;;
72037;SDS011;59900;50.788;12.904;2022-09-27T02:03:56;4.25;;;1.92;;
72037;SDS011;59900;50.788;12.904;2022-09-27T02:06:27;6.03;;;2.05;;
72037;SDS011;59900;50.788;12.904;2022-09-27T02:09:03;5.40;;;2.10;;
72037;SDS011;59900;50.788;12.904;2022-09-27T02:11:33;3.60;;;1.77;;
72037;SDS011;59900;50.788;12.904;2022-09-27T02:14:17;4.18;;;1.90;;
72037;SDS011;59900;50.788;12.904;2022-09-27T02:16:53;4.50;;;2.05;;
72037;SDS011;59900;50.788;12.904;2022-09-27T02:24:42;3.33;;;1.77;;
72037;SDS011;59900;50.788;12.904;2022-09-27T02:27:16;4.57;;;2.20;;
72037;SDS011;59900;50.788;12.904;2022-09-27T02:29:47;4.05;;;2.10;;
72037;SDS011;59900;50.788;12.904;2022-09-27T02:32:17;5.50;;;2.30;;
72037;SDS011;59900;50.788;12.904;2022-09-27T02:34:42;3.63;;;2.00;;
72037;SDS011;59900;50.788;12.904;2022-09-27T02:37:20;4.05;;;1.77;;
72037;SDS011;59900;50.788;12.904;2022-09-27T02:39:48;4.35;;;1.95;;
72037;SDS011;59900;50.788;12.904;2022-09-27T02:42:14;6.65;;;2.45;;
72037;SDS011;59900;50.788;12.904;2022-09-27T02:44:39;5.83;;;2.33;;
72037;SDS011;59900;50.788;12.904;2022-09-27T02:47:28;3.40;;;1.53;;
72037;SDS011;59900;50.788;12.904;2022-09-27T02:50:16;5.38;;;1.80;;
72037;SDS011;59900;50.788;12.904;2022-09-27T02:53:09;3.80;;;1.98;;
72037;SDS011;59900;50.788;12.904;2022-09-27T02:56:03;3.20;;;1.60;;
72037;SDS011;59900;50.788;12.904;2022-09-27T03:01:19;3.50;;;1.70;;
72037;SDS011;59900;50.788;12.904;2022-09-27T03:03:53;3.03;;;1.60;;
72037;SDS011;59900;50.788;12.904;2022-09-27T03:06:22;3.70;;;1.83;;
72037;SDS011;59900;50.788;12.904;2022-09-27T03:08:49;4.55;;;1.73;;
72037;SDS011;59900;50.788;12.904;2022-09-27T03:11:14;3.47;;;1.77;;
72037;SDS011;59900;50.788;12.904;2022-09-27T03:13:41;3.72;;;1.50;;
72037;SDS011;59900;50.788;12.904;2022-09-27T03:16:08;3.47;;;1.73;;
72037;SDS011;59900;50.788;12.904;2022-09-27T03:18:33;3.57;;;1.77;;
72037;SDS011;59900;50.788;12.904;2022-09-27T03:20:58;3.67;;;1.90;;
72037;SDS011;59900;50.788;12.904;2022-09-27T03:23:23;3.00;;;1.57;;
72037;SDS011;59900;50.788;12.904;2022-09-27T03:25:49;3.97;;;2.10;;
72037;SDS011;59900;50.788;12.904;2022-09-27T03:28:15;3.33;;;1.98;;
72037;SDS011;59900;50.788;12.904;2022-09-27T03:30:43;4.47;;;2.10;;
72037;SDS011;59900;50.788;12.904;2022-09-27T03:33:09;4.72;;;1.73;;
72037;SDS011;59900;50.788;12.904;2022-09-27T03:35:34;3.60;;;1.73;;
72037;SDS011;59900;50.788;12.904;2022-09-27T03:38:00;3.60;;;1.70;;
72037;SDS011;59900;50.788;12.904;2022-09-27T03:40:26;3.87;;;1.90;;
72037;SDS011;59900;50.788;12.904;2022-09-27T03:42:51;3.63;;;2.00;;
72037;SDS011;59900;50.788;12.904;2022-09-27T03:45:16;3.37;;;1.83;;
72037;SDS011;59900;50.788;12.904;2022-09-27T03:47:42;3.80;;;2.10;;
72037;SDS011;59900;50.788;12.904;2022-09-27T03:50:08;3.87;;;1.90;;
72037;SDS011;59900;50.788;12.904;2022-09-27T03:52:35;3.90;;;1.83;;
72037;SDS011;59900;50.788;12.904;2022-09-27T03:55:00;4.73;;;2.63;;
72037;SDS011;59900;50.788;12.904;2022-09-27T03:57:26;4.57;;;2.17;;
72037;SDS011;59900;50.788;12.904;2022-09-27T03:59:51;4.67;;;2.23;;
72037;SDS011;59900;50.788;12.904;2022-09-27T04:02:16;4.15;;;2.17;;
72037;SDS011;59900;50.788;12.904;2022-09-27T04:04:41;3.30;;;1.80;;
72037;SDS011;59900;50.788;12.904;2022-09-27T04:07:07;5.10;;;2.53;;
72037;SDS011;59900;50.788;12.904;2022-09-27T04:09:33;4.25;;;2.38;;
72037;SDS011;59900;50.788;12.904;2022-09-27T04:11:59;3.83;;;2.07;;
72037;SDS011;59900;50.788;12.904;2022-09-27T04:14:24;5.10;;;2.40;;
72037;SDS011;59900;50.788;12.904;2022-09-27T04:16:49;6.17;;;2.10;;
72037;SDS011;59900;50.788;12.904;2022-09-27T04:19:15;4.17;;;2.20;;
72037;SDS011;59900;50.788;12.904;2022-09-27T04:21:40;3.50;;;1.80;;
72037;SDS011;59900;50.788;12.904;2022-09-27T04:24:05;4.37;;;2.40;;
72037;SDS011;59900;50.788;12.904;2022-09-27T04:26:31;4.47;;;2.63;;
72037;SDS011;59900;50.788;12.904;2022-09-27T04:28:56;5.30;;;2.37;;
72037;SDS011;59900;50.788;12.904;2022-09-27T04:31:21;5.93;;;2.60;;
72037;SDS011;59900;50.788;12.904;2022-09-27T04:33:47;4.83;;;2.30;;
72037;SDS011;59900;50.788;12.904;2022-09-27T04:36:19;4.63;;;2.50;;
72037;SDS011;59900;50.788;12.904;2022-09-27T04:38:52;4.93;;;2.35;;
72037;SDS011;59900;50.788;12.904;2022-09-27T04:41:22;5.32;;;2.60;;
72037;SDS011;59900;50.788;12.904;2022-09-27T04:43:51;6.05;;;2.50;;
72037;SDS011;59900;50.788;12.904;2022-09-27T04:46:16;4.70;;;2.87;;
72037;SDS011;59900;50.788;12.904;2022-09-27T04:48:42;4.40;;;2.65;;
72037;SDS011;59900;50.788;12.904;2022-09-27T04:51:08;4.73;;;2.90;;
72037;SDS011;59900;50.788;12.904;2022-09-27T04:53:34;4.53;;;2.38;;
72037;SDS011;59900;50.788;12.904;2022-09-27T04:55:59;5.30;;;2.20;;
72037;SDS011;59900;50.788;12.904;2022-09-27T04:58:29;4.80;;;2.60;;
72037;SDS011;59900;50.788;12.904;2022-09-27T05:00:55;5.00;;;2.60;;
72037;SDS011;59900;50.788;12.904;2022-09-27T05:03:21;5.00;;;2.67;;
72037;SDS011;59900;50.788;12.904;2022-09-27T05:05:46;5.68;;;3.00;;
72037;SDS011;59900;50.788;12.904;2022-09-27T05:08:12;5.43;;;2.93;;
72037;SDS011;59900;50.788;12.904;2022-09-27T05:10:37;5.32;;;2.63;;
72037;SDS011;59900;50.788;12.904;2022-09-27T05:13:03;4.70;;;2.50;;
72037;SDS011;59900;50.788;12.904;2022-09-27T05:15:28;4.57;;;2.43;;
72037;SDS011;59900;50.788;12.904;2022-09-27T05:17:54;4.45;;;2.50;;
72037;SDS011;59900;50.788;12.904;2022-09-27T05:20:19;4.93;;;2.40;;
72037;SDS011;59900;50.788;12.904;2022-09-27T05:22:44;4.20;;;2.27;;
72037;SDS011;59900;50.788;12.904;2022-09-27T05:25:10;4.73;;;2.70;;
72037;SDS011;59900;50.788;12.904;2022-09-27T05:27:36;4.82;;;2.60;;
72037;SDS011;59900;50.788;12.904;2022-09-27T05:30:01;4.03;;;2.10;;
72037;SDS011;59900;50.788;12.904;2022-09-27T05:32:27;5.40;;;2.53;;
72037;SDS011;59900;50.788;12.904;2022-09-27T05:34:53;3.67;;;2.00;;
72037;SDS011;59900;50.788;12.904;2022-09-27T05:37:18;4.18;;;1.98;;
72037;SDS011;59900;50.788;12.904;2022-09-27T05:39:44;3.70;;;1.97;;
72037;SDS011;59900;50.788;12.904;2022-09-27T05:42:10;3.72;;;2.17;;
72037;SDS011;59900;50.788;12.904;2022-09-27T05:44:39;4.23;;;1.83;;
72037;SDS011;59900;50.788;12.904;2022-09-27T05:47:04;2.92;;;1.52;;
72037;SDS011;59900;50.788;12.904;2022-09-27T05:49:30;3.33;;;1.60;;
72037;SDS011;59900;50.788;12.904;2022-09-27T05:51:56;2.87;;;1.43;;
72037;SDS011;59900;50.788;12.904;2022-09-27T05:54:21;2.83;;;1.42;;
72037;SDS011;59900;50.788;12.904;2022-09-27T05:56:46;2.60;;;1.27;;
72037;SDS011;59900;50.788;12.904;2022-09-27T05:59:12;3.33;;;1.70;;
72037;SDS011;59900;50.788;12.904;2022-09-27T06:01:37;2.97;;;1.60;;
72037;SDS011;59900;50.788;12.904;2022-09-27T06:04:02;2.43;;;1.50;;
72037;SDS011;59900;50.788;12.904;2022-09-27T06:06:29;2.75;;;1.70;;
72037;SDS011;59900;50.788;12.904;2022-09-27T06:08:55;4.82;;;2.00;;
72037;SDS011;59900;50.788;12.904;2022-09-27T06:11:21;3.63;;;2.10;;
72037;SDS011;59900;50.788;12.904;2022-09-27T06:13:46;3.58;;;1.70;;
72037;SDS011;59900;50.788;12.904;2022-09-27T06:16:12;2.77;;;1.40;;
72037;SDS011;59900;50.788;12.904;2022-09-27T06:18:37;2.40;;;1.63;;
72037;SDS011;59900;50.788;12.904;2022-09-27T06:21:03;3.20;;;1.57;;
72037;SDS011;59900;50.788;12.904;2022-09-27T06:23:29;2.60;;;1.30;;
72037;SDS011;59900;50.788;12.904;2022-09-27T06:26:02;3.00;;;1.40;;
72037;SDS011;59900;50.788;12.904;2022-09-27T06:28:30;2.58;;;1.42;;
72037;SDS011;59900;50.788;12.904;2022-09-27T06:30:56;3.67;;;1.50;;
72037;SDS011;59900;50.788;12.904;2022-09-27T06:33:24;2.07;;;1.20;;
72037;SDS011;59900;50.788;12.904;2022-09-27T06:35:51;3.85;;;2.05;;
72037;SDS011;59900;50.788;12.904;2022-09-27T06:38:17;2.43;;;1.37;;
72037;SDS011;59900;50.788;12.904;2022-09-27T06:40:43;4.32;;;1.40;;
72037;SDS011;59900;50.788;12.904;2022-09-27T06:43:16;3.10;;;1.50;;
72037;SDS011;59900;50.788;12.904;2022-09-27T06:45:43;2.33;;;1.20;;
72037;SDS011;59900;50.788;12.904;2022-09-27T06:48:09;3.17;;;1.27;;
72037;SDS011;59900;50.788;12.904;2022-09-27T06:50:37;3.72;;;1.30;;
72037;SDS011;59900;50.788;12.904;2022-09-27T06:53:04;2.53;;;1.20;;
72037;SDS011;59900;50.788;12.904;2022-09-27T06:55:30;2.00;;;1.23;;
72037;SDS011;59900;50.788;12.904;2022-09-27T06:57:56;3.20;;;1.17;;
72037;SDS011;59900;50.788;12.904;2022-09-27T07:00:41;2.03;;;1.05;;
72037;SDS011;59900;50.788;12.904;2022-09-27T07:03:10;1.77;;;1.10;;
72037;SDS011;59900;50.788;12.904;2022-09-27T07:05:36;3.93;;;1.33;;
72037;SDS011;59900;50.788;12.904;2022-09-27T07:08:02;2.63;;;1.13;;
72037;SDS011;59900;50.788;12.904;2022-09-27T07:10:29;2.38;;;1.20;;
72037;SDS011;59900;50.788;12.904;2022-09-27T07:13:07;1.77;;;1.08;;
72037;SDS011;59900;50.788;12.904;2022-09-27T07:15:35;2.30;;;1.50;;
72037;SDS011;59900;50.788;12.904;2022-09-27T07:18:01;3.17;;;1.40;;
72037;SDS011;59900;50.788;12.904;2022-09-27T07:20:28;2.30;;;1.10;;
72037;SDS011;59900;50.788;12.904;2022-09-27T07:22:54;2.00;;;1.10;;
72037;SDS011;59900;50.788;12.904;2022-09-27T07:25:19;2.17;;;1.30;;
72037;SDS011;59900;50.788;12.904;2022-09-27T07:27:44;2.30;;;1.03;;
72037;SDS011;59900;50.788;12.904;2022-09-27T07:30:10;1.90;;;1.00;;
72037;SDS011;59900;50.788;12.904;2022-09-27T07:32:36;1.23;;;0.82;;
72037;SDS011;59900;50.788;12.904;2022-09-27T07:35:02;2.03;;;1.10;;
72037;SDS011;59900;50.788;12.904;2022-09-27T07:37:30;1.55;;;0.93;;
72037;SDS011;59900;50.788;12.904;2022-09-27T07:39:57;1.58;;;0.80;;
72037;SDS011;59900;50.788;12.904;2022-09-27T07:42:22;1.67;;;0.90;;
72037;SDS011;59900;50.788;12.904;2022-09-27T07:44:48;2.10;;;1.00;;
72037;SDS011;59900;50.788;12.904;2022-09-27T07:47:13;3.37;;;0.93;;
72037;SDS011;59900;50.788;12.904;2022-09-27T07:49:38;2.57;;;1.30;;
72037;SDS011;59900;50.788;12.904;2022-09-27T07:52:04;1.90;;;1.27;;
72037;SDS011;59900;50.788;12.904;2022-09-27T07:54:29;2.07;;;1.20;;
72037;SDS011;59900;50.788;12.904;2022-09-27T07:56:54;2.13;;;1.20;;
72037;SDS011;59900;50.788;12.904;2022-09-27T07:59:19;2.80;;;1.50;;
72037;SDS011;59900;50.788;12.904;2022-09-27T08:01:45;4.23;;;1.60;;
72037;SDS011;59900;50.788;12.904;2022-09-27T08:04:10;3.10;;;1.58;;
72037;SDS011;59900;50.788;12.904;2022-09-27T08:06:35;1.50;;;0.93;;
72037;SDS011;59900;50.788;12.904;2022-09-27T08:09:04;9.33;;;1.70;;
72037;SDS011;59900;50.788;12.904;2022-09-27T08:11:30;5.60;;;1.25;;
72037;SDS011;59900;50.788;12.904;2022-09-27T08:13:55;2.00;;;1.10;;
72037;SDS011;59900;50.788;12.904;2022-09-27T08:16:21;1.73;;;0.90;;
72037;SDS011;59900;50.788;12.904;2022-09-27T08:18:46;1.87;;;1.07;;
72037;SDS011;59900;50.788;12.904;2022-09-27T08:21:11;2.20;;;1.37;;
72037;SDS011;59900;50.788;12.904;2022-09-27T08:23:36;2.33;;;1.10;;
72037;SDS011;59900;50.788;12.904;2022-09-27T08:26:02;2.97;;;1.07;;
72037;SDS011;59900;50.788;12.904;2022-09-27T08:28:27;1.87;;;1.00;;
72037;SDS011;59900;50.788;12.904;2022-09-27T08:30:54;3.05;;;1.67;;
72037;SDS011;59900;50.788;12.904;2022-09-27T08:33:23;2.70;;;1.50;;
72037;SDS011;59900;50.788;12.904;2022-09-27T08:35:49;2.55;;;1.17;;
72037;SDS011;59900;50.788;12.904;2022-09-27T08:38:15;1.67;;;1.07;;
72037;SDS011;59900;50.788;12.904;2022-09-27T08:49:08;3.27;;;1.10;;
72037;SDS011;59900;50.788;12.904;2022-09-27T08:51:38;2.58;;;1.30;;
72037;SDS011;59900;50.788;12.904;2022-09-27T08:54:07;2.30;;;1.15;;
72037;SDS011;59900;50.788;12.904;2022-09-27T08:56:35;1.90;;;0.93;;
72037;SDS011;59900;50.788;12.904;2022-09-27T08:59:22;2.43;;;0.93;;
72037;SDS011;59900;50.788;12.904;2022-09-27T09:01:50;2.90;;;1.27;;
72037;SDS011;59900;50.788;12.904;2022-09-27T09:04:25;2.05;;;1.27;;
72037;SDS011;59900;50.788;12.904;2022-09-27T09:07:03;1.45;;;0.90;;
72037;SDS011;59900;50.788;12.904;2022-09-27T09:09:55;1.35;;;0.95;;
72037;SDS011;59900;50.788;12.904;2022-09-27T09:13:00;2.43;;;1.23;;
72037;SDS011;59900;50.788;12.904;2022-09-27T09:15:42;1.77;;;0.95;;
72037;SDS011;59900;50.788;12.904;2022-09-27T09:18:28;2.25;;;1.23;;
72037;SDS011;59900;50.788;12.904;2022-09-27T09:22:06;1.75;;;0.80;;
72037;SDS011;59900;50.788;12.904;2022-09-27T09:24:22;2.17;;;1.30;;
72037;SDS011;59900;50.788;12.904;2022-09-27T09:29:52;2.05;;;1.10;;
72037;SDS011;59900;50.788;12.904;2022-09-27T09:35:04;1.70;;;1.00;;
72037;SDS011;59900;50.788;12.904;2022-09-27T09:40:35;1.83;;;1.00;;
72037;SDS011;59900;50.788;12.904;2022-09-27T09:43:19;1.70;;;1.10;;
72037;SDS011;59900;50.788;12.904;2022-09-27T09:45:51;1.48;;;1.13;;
72037;SDS011;59900;50.788;12.904;2022-09-27T09:51:21;1.30;;;0.90;;
72037;SDS011;59900;50.788;12.904;2022-09-27T09:53:56;2.23;;;0.80;;
72037;SDS011;59900;50.788;12.904;2022-09-27T09:56:30;1.45;;;0.90;;
72037;SDS011;59900;50.788;12.904;2022-09-27T09:59:02;2.03;;;1.15;;
72037;SDS011;59900;50.788;12.904;2022-09-27T10:01:40;1.92;;;0.98;;
72037;SDS011;59900;50.788;12.904;2022-09-27T10:04:11;1.45;;;1.08;;
72037;SDS011;59900;50.788;12.904;2022-09-27T10:06:42;1.83;;;1.30;;
72037;SDS011;59900;50.788;12.904;2022-09-27T10:09:08;2.00;;;1.00;;
72037;SDS011;59900;50.788;12.904;2022-09-27T10:11:39;2.70;;;1.08;;
72037;SDS011;59900;50.788;12.904;2022-09-27T10:14:09;1.60;;;1.00;;
72037;SDS011;59900;50.788;12.904;2022-09-27T10:16:36;2.20;;;1.00;;
72037;SDS011;59900;50.788;12.904;2022-09-27T10:19:03;1.50;;;1.00;;
72037;SDS011;59900;50.788;12.904;2022-09-27T10:21:30;2.17;;;1.03;;
72037;SDS011;59900;50.788;12.904;2022-09-27T10:24:01;1.83;;;0.90;;
72037;SDS011;59900;50.788;12.904;2022-09-27T10:26:29;2.63;;;1.20;;
72037;SDS011;59900;50.788;12.904;2022-09-27T10:28:55;2.53;;;1.08;;
72037;SDS011;59900;50.788;12.904;2022-09-27T10:31:20;2.90;;;1.00;;
72037;SDS011;59900;50.788;12.904;2022-09-27T10:33:53;2.22;;;1.15;;
72037;SDS011;59900;50.788;12.904;2022-09-27T10:36:24;2.28;;;1.17;;
72037;SDS011;59900;50.788;12.904;2022-09-27T10:38:53;1.83;;;0.90;;
72037;SDS011;59900;50.788;12.904;2022-09-27T10:41:22;1.92;;;0.90;;
72037;SDS011;59900;50.788;12.904;2022-09-27T10:43:56;2.67;;;1.52;;
72037;SDS011;59900;50.788;12.904;2022-09-27T10:46:26;2.00;;;1.23;;
72037;SDS011;59900;50.788;12.904;2022-09-27T10:49:08;2.55;;;1.20;;
72037;SDS011;59900;50.788;12.904;2022-09-27T10:51:41;2.63;;;1.33;;
72037;SDS011;59900;50.788;12.904;2022-09-27T10:54:17;1.95;;;1.40;;
72037;SDS011;59900;50.788;12.904;2022-09-27T10:56:45;3.80;;;1.55;;
72037;SDS011;59900;50.788;12.904;2022-09-27T10:59:20;1.97;;;1.20;;
72037;SDS011;59900;50.788;12.904;2022-09-27T11:01:45;3.17;;;1.20;;
72037;SDS011;59900;50.788;12.904;2022-09-27T11:04:30;2.78;;;1.40;;
72037;SDS011;59900;50.788;12.904;2022-09-27T11:07:16;2.77;;;1.57;;
72037;SDS011;59900;50.788;12.904;2022-09-27T11:09:53;2.42;;;1.33;;
72037;SDS011;59900;50.788;12.904;2022-09-27T11:12:26;1.92;;;1.20;;
72037;SDS011;59900;50.788;12.904;2022-09-27T11:14:53;1.43;;;1.00;;
72037;SDS011;59900;50.788;12.904;2022-09-27T11:17:25;1.88;;;1.20;;
72037;SDS011;59900;50.788;12.904;2022-09-27T11:20:20;1.10;;;0.80;;
72037;SDS011;59900;50.788;12.904;2022-09-27T11:23:07;1.48;;;1.10;;
72037;SDS011;59900;50.788;12.904;2022-09-27T11:25:38;2.13;;;1.00;;
72037;SDS011;59900;50.788;12.904;2022-09-27T11:34:12;1.75;;;1.08;;
72037;SDS011;59900;50.788;12.904;2022-09-27T11:36:55;2.80;;;1.40;;
72037;SDS011;59900;50.788;12.904;2022-09-27T11:40:01;1.90;;;0.90;;
72037;SDS011;59900;50.788;12.904;2022-09-27T11:42:41;1.65;;;1.05;;
72037;SDS011;59900;50.788;12.904;2022-09-27T11:45:25;1.98;;;1.38;;
72037;SDS011;59900;50.788;12.904;2022-09-27T11:48:13;1.63;;;1.10;;
72037;SDS011;59900;50.788;12.904;2022-09-27T11:51:07;2.10;;;1.00;;
72037;SDS011;59900;50.788;12.904;2022-09-27T11:54:03;2.10;;;1.20;;
72037;SDS011;59900;50.788;12.904;2022-09-27T11:56:49;3.55;;;1.30;;
72037;SDS011;59900;50.788;12.904;2022-09-27T11:59:37;3.17;;;1.42;;
72037;SDS011;59900;50.788;12.904;2022-09-27T12:02:23;2.00;;;1.10;;
72037;SDS011;59900;50.788;12.904;2022-09-27T12:05:19;2.55;;;1.25;;
72037;SDS011;59900;50.788;12.904;2022-09-27T12:10:47;3.28;;;1.20;;
72037;SDS011;59900;50.788;12.904;2022-09-27T12:13:26;1.65;;;1.10;;
72037;SDS011;59900;50.788;12.904;2022-09-27T12:15:58;1.50;;;0.80;;
72037;SDS011;59900;50.788;12.904;2022-09-27T12:18:36;2.13;;;1.48;;
72037;SDS011;59900;50.788;12.904;2022-09-27T12:21:03;2.20;;;1.20;;
72037;SDS011;59900;50.788;12.904;2022-09-27T12:26:13;2.20;;;1.35;;
72037;SDS011;59900;50.788;12.904;2022-09-27T12:28:48;6.75;;;1.10;;
72037;SDS011;59900;50.788;12.904;2022-09-27T12:31:22;2.13;;;1.17;;
72037;SDS011;59900;50.788;12.904;2022-09-27T12:36:27;1.80;;;1.00;;
72037;SDS011;59900;50.788;12.904;2022-09-27T12:38:59;1.90;;;1.27;;
72037;SDS011;59900;50.788;12.904;2022-09-27T12:41:36;1.98;;;1.13;;
72037;SDS011;59900;50.788;12.904;2022-09-27T12:44:07;2.75;;;1.30;;
72037;SDS011;59900;50.788;12.904;2022-09-27T12:49:25;2.42;;;1.30;;
72037;SDS011;59900;50.788;12.904;2022-09-27T12:52:00;2.95;;;1.40;;
72037;SDS011;59900;50.788;12.904;2022-09-27T12:59:53;2.13;;;1.00;;
72037;SDS011;59900;50.788;12.904;2022-09-27T13:02:31;2.08;;;1.00;;
72037;SDS011;59900;50.788;12.904;2022-09-27T13:13:12;2.60;;;1.00;;
72037;SDS011;59900;50.788;12.904;2022-09-27T13:15:42;2.35;;;1.10;;
72037;SDS011;59900;50.788;12.904;2022-09-27T13:20:59;2.33;;;1.10;;
72037;SDS011;59900;50.788;12.904;2022-09-27T13:25:55;2.40;;;1.37;;
72037;SDS011;59900;50.788;12.904;2022-09-27T13:33:39;3.50;;;1.80;;
72037;SDS011;59900;50.788;12.904;2022-09-27T13:44:17;4.35;;;1.30;;
72037;SDS011;59900;50.788;12.904;2022-09-27T13:46:51;2.22;;;1.02;;
72037;SDS011;59900;50.788;12.904;2022-09-27T13:51:54;2.77;;;1.57;;
72037;SDS011;59900;50.788;12.904;2022-09-27T13:56:58;2.88;;;1.38;;
72037;SDS011;59900;50.788;12.904;2022-09-27T13:59:26;3.85;;;1.77;;
72037;SDS011;59900;50.788;12.904;2022-09-27T14:02:17;2.53;;;1.45;;
72037;SDS011;59900;50.788;12.904;2022-09-27T14:04:50;3.33;;;1.50;;
72037;SDS011;59900;50.788;12.904;2022-09-27T14:07:33;3.05;;;1.52;;
72037;SDS011;59900;50.788;12.904;2022-09-27T14:10:04;2.40;;;1.20;;
72037;SDS011;59900;50.788;12.904;2022-09-27T14:12:36;5.38;;;1.48;;
72037;SDS011;59900;50.788;12.904;2022-09-27T14:15:06;5.40;;;1.70;;
72037;SDS011;59900;50.788;12.904;2022-09-27T14:17:41;15.33;;;1.90;;
72037;SDS011;59900;50.788;12.904;2022-09-27T14:23:15;3.10;;;1.52;;
72037;SDS011;59900;50.788;12.904;2022-09-27T14:25:49;4.82;;;1.20;;
72037;SDS011;59900;50.788;12.904;2022-09-27T14:28:20;3.60;;;1.70;;
72037;SDS011;59900;50.788;12.904;2022-09-27T14:30:47;3.80;;;1.93;;
72037;SDS011;59900;50.788;12.904;2022-09-27T14:33:29;4.93;;;1.40;;
72037;SDS011;59900;50.788;12.904;2022-09-27T14:35:56;3.40;;;1.70;;
72037;SDS011;59900;50.788;12.904;2022-09-27T14:38:40;3.13;;;1.60;;
72037;SDS011;59900;50.788;12.904;2022-09-27T14:41:06;3.92;;;1.50;;
72037;SDS011;59900;50.788;12.904;2022-09-27T14:43:32;3.13;;;1.60;;
72037;SDS011;59900;50.788;12.904;2022-09-27T14:46:00;4.97;;;2.15;;
72037;SDS011;59900;50.788;12.904;2022-09-27T14:48:28;3.42;;;1.42;;
72037;SDS011;59900;50.788;12.904;2022-09-27T14:51:03;4.30;;;1.70;;
72037;SDS011;59900;50.788;12.904;2022-09-27T14:56:21;4.68;;;1.85;;
72037;SDS011;59900;50.788;12.904;2022-09-27T14:58:51;4.57;;;1.92;;
72037;SDS011;59900;50.788;12.904;2022-09-27T15:01:22;4.57;;;1.60;;
72037;SDS011;59900;50.788;12.904;2022-09-27T15:03:48;4.73;;;2.20;;
72037;SDS011;59900;50.788;12.904;2022-09-27T15:06:15;4.50;;;1.67;;
72037;SDS011;59900;50.788;12.904;2022-09-27T15:08:41;3.13;;;1.60;;
72037;SDS011;59900;50.788;12.904;2022-09-27T15:11:09;3.85;;;1.65;;
72037;SDS011;59900;50.788;12.904;2022-09-27T15:13:34;2.90;;;1.37;;
72037;SDS011;59900;50.788;12.904;2022-09-27T15:16:05;3.50;;;1.67;;
72037;SDS011;59900;50.788;12.904;2022-09-27T15:21:02;2.72;;;1.48;;
72037;SDS011;59900;50.788;12.904;2022-09-27T15:23:30;4.95;;;2.13;;
72037;SDS011;59900;50.788;12.904;2022-09-27T15:26:07;4.03;;;2.00;;
72037;SDS011;59900;50.788;12.904;2022-09-27T15:28:46;3.45;;;1.60;;
72037;SDS011;59900;50.788;12.904;2022-09-27T15:31:14;4.63;;;1.50;;
72037;SDS011;59900;50.788;12.904;2022-09-27T15:33:40;4.65;;;1.73;;
72037;SDS011;59900;50.788;12.904;2022-09-27T15:36:07;4.53;;;1.88;;
72037;SDS011;59900;50.788;12.904;2022-09-27T15:41:05;3.88;;;1.73;;
72037;SDS011;59900;50.788;12.904;2022-09-27T15:46:41;4.55;;;1.50;;
72037;SDS011;59900;50.788;12.904;2022-09-27T15:52:00;4.15;;;1.55;;
72037;SDS011;59900;50.788;12.904;2022-09-27T15:54:27;4.82;;;2.15;;
72037;SDS011;59900;50.788;12.904;2022-09-27T15:56:54;4.70;;;1.70;;
72037;SDS011;59900;50.788;12.904;2022-09-27T15:59:25;7.55;;;1.70;;
72037;SDS011;59900;50.788;12.904;2022-09-27T16:01:59;4.97;;;2.15;;
72037;SDS011;59900;50.788;12.904;2022-09-27T16:04:27;7.97;;;1.80;;
72037;SDS011;59900;50.788;12.904;2022-09-27T16:06:55;4.57;;;1.83;;
72037;SDS011;59900;50.788;12.904;2022-09-27T16:09:22;4.87;;;1.80;;
72037;SDS011;59900;50.788;12.904;2022-09-27T16:11:47;5.17;;;1.77;;
72037;SDS011;59900;50.788;12.904;2022-09-27T16:14:14;5.80;;;1.90;;
72037;SDS011;59900;50.788;12.904;2022-09-27T16:16:45;8.38;;;2.08;;
72037;SDS011;59900;50.788;12.904;2022-09-27T16:19:16;6.97;;;2.65;;
72037;SDS011;59900;50.788;12.904;2022-09-27T16:21:41;7.07;;;2.17;;
72037;SDS011;59900;50.788;12.904;2022-09-27T16:24:11;4.65;;;2.08;;
72037;SDS011;59900;50.788;12.904;2022-09-27T16:26:37;5.23;;;2.07;;
72037;SDS011;59900;50.788;12.904;2022-09-27T16:29:03;4.63;;;2.00;;
72037;SDS011;59900;50.788;12.904;2022-09-27T16:31:29;4.30;;;1.65;;
72037;SDS011;59900;50.788;12.904;2022-09-27T16:33:54;4.03;;;1.77;;
72037;SDS011;59900;50.788;12.904;2022-09-27T16:36:19;4.27;;;2.00;;
72037;SDS011;59900;50.788;12.904;2022-09-27T16:38:48;4.23;;;2.07;;
72037;SDS011;59900;50.788;12.904;2022-09-27T16:41:15;3.85;;;1.77;;
72037;SDS011;59900;50.788;12.904;2022-09-27T16:43:40;4.73;;;1.67;;